sensor_id;sensor_type;location;lat;lon;timestamp;temperature;humidity
9033;DHT22;4551;53.164;8.210;2023-07-09T00:02:18;24.20;99.90
9033;DHT22;4551;53.164;8.210;2023-07-09T00:04:46;24.20;99.90
9033;DHT22;4551;53.164;8.210;2023-07-09T00:07:17;24.10;99.90
9033;DHT22;4551;53.164;8.210;2023-07-09T00:09:45;24.10;99.90
9033;DHT22;4551;53.164;8.210;2023-07-09T00:12:14;24.00;99.90
9033;DHT22;4551;53.164;8.210;2023-07-09T00:14:43;24.00;99.90
9033;DHT22;4551;53.164;8.210;2023-07-09T00:17:11;24.00;99.90
9033;DHT22;4551;53.164;8.210;2023-07-09T00:19:39;23.90;99.90
9033;DHT22;4551;53.164;8.210;2023-07-09T00:22:13;23.90;99.90
9033;DHT22;4551;53.164;8.210;2023-07-09T00:24:45;23.90;99.90
9033;DHT22;4551;53.164;8.210;2023-07-09T00:27:14;23.80;99.90
9033;DHT22;4551;53.164;8.210;2023-07-09T00:29:45;23.80;99.90
9033;DHT22;4551;53.164;8.210;2023-07-09T00:32:13;23.70;99.90
9033;DHT22;4551;53.164;8.210;2023-07-09T00:34:42;23.70;99.90
9033;DHT22;4551;53.164;8.210;2023-07-09T00:37:15;23.60;99.90
9033;DHT22;4551;53.164;8.210;2023-07-09T00:39:45;23.60;99.90
9033;DHT22;4551;53.164;8.210;2023-07-09T00:42:14;23.10;99.90
9033;DHT22;4551;53.164;8.210;2023-07-09T00:44:44;23.50;99.90
9033;DHT22;4551;53.164;8.210;2023-07-09T00:47:18;23.50;99.90
9033;DHT22;4551;53.164;8.210;2023-07-09T00:49:48;23.40;99.90
9033;DHT22;4551;53.164;8.210;2023-07-09T00:52:20;23.40;99.90
9033;DHT22;4551;53.164;8.210;2023-07-09T00:54:50;23.40;99.90
9033;DHT22;4551;53.164;8.210;2023-07-09T00:57:20;23.30;99.90
9033;DHT22;4551;53.164;8.210;2023-07-09T00:59:49;23.30;99.90
9033;DHT22;4551;53.164;8.210;2023-07-09T01:02:18;23.30;99.90
9033;DHT22;4551;53.164;8.210;2023-07-09T01:04:50;23.20;99.90
9033;DHT22;4551;53.164;8.210;2023-07-09T01:07:18;23.30;99.90
9033;DHT22;4551;53.164;8.210;2023-07-09T01:09:49;23.20;99.90
9033;DHT22;4551;53.164;8.210;2023-07-09T01:12:18;23.20;99.90
9033;DHT22;4551;53.164;8.210;2023-07-09T01:14:47;23.20;99.90
9033;DHT22;4551;53.164;8.210;2023-07-09T01:17:18;23.10;99.90
9033;DHT22;4551;53.164;8.210;2023-07-09T01:19:48;23.10;99.90
9033;DHT22;4551;53.164;8.210;2023-07-09T01:22:19;23.10;99.90
9033;DHT22;4551;53.164;8.210;2023-07-09T01:24:51;23.10;99.90
9033;DHT22;4551;53.164;8.210;2023-07-09T01:27:20;23.00;99.90
9033;DHT22;4551;53.164;8.210;2023-07-09T01:29:48;23.00;99.90
9033;DHT22;4551;53.164;8.210;2023-07-09T01:32:17;23.00;99.90
9033;DHT22;4551;53.164;8.210;2023-07-09T01:34:48;22.90;99.90
9033;DHT22;4551;53.164;8.210;2023-07-09T01:37:19;22.90;99.90
9033;DHT22;4551;53.164;8.210;2023-07-09T01:39:48;22.90;99.90
9033;DHT22;4551;53.164;8.210;2023-07-09T01:42:17;22.80;99.90
9033;DHT22;4551;53.164;8.210;2023-07-09T01:44:47;22.80;99.90
9033;DHT22;4551;53.164;8.210;2023-07-09T01:47:15;22.70;99.90
9033;DHT22;4551;53.164;8.210;2023-07-09T01:49:44;22.70;99.90
9033;DHT22;4551;53.164;8.210;2023-07-09T01:52:13;22.60;99.90
9033;DHT22;4551;53.164;8.210;2023-07-09T01:54:44;22.60;99.90
9033;DHT22;4551;53.164;8.210;2023-07-09T01:57:18;22.60;99.90
9033;DHT22;4551;53.164;8.210;2023-07-09T01:59:49;22.50;99.90
9033;DHT22;4551;53.164;8.210;2023-07-09T02:02:18;22.50;99.90
9033;DHT22;4551;53.164;8.210;2023-07-09T02:04:46;22.50;99.90
9033;DHT22;4551;53.164;8.210;2023-07-09T02:07:15;22.30;99.90
9033;DHT22;4551;53.164;8.210;2023-07-09T02:09:44;22.50;99.90
9033;DHT22;4551;53.164;8.210;2023-07-09T02:12:13;22.40;99.90
9033;DHT22;4551;53.164;8.210;2023-07-09T02:14:41;22.40;99.90
9033;DHT22;4551;53.164;8.210;2023-07-09T02:17:10;22.40;99.90
9033;DHT22;4551;53.164;8.210;2023-07-09T02:19:38;22.40;99.90
9033;DHT22;4551;53.164;8.210;2023-07-09T02:22:07;22.40;99.90
9033;DHT22;4551;53.164;8.210;2023-07-09T02:24:35;22.40;99.90
9033;DHT22;4551;53.164;8.210;2023-07-09T02:27:05;22.40;99.90
9033;DHT22;4551;53.164;8.210;2023-07-09T02:29:34;22.30;99.90
9033;DHT22;4551;53.164;8.210;2023-07-09T02:32:02;22.30;99.90
9033;DHT22;4551;53.164;8.210;2023-07-09T02:34:30;22.30;99.90
9033;DHT22;4551;53.164;8.210;2023-07-09T02:36:58;22.20;99.90
9033;DHT22;4551;53.164;8.210;2023-07-09T02:39:27;22.20;99.90
9033;DHT22;4551;53.164;8.210;2023-07-09T02:41:55;22.10;99.90
9033;DHT22;4551;53.164;8.210;2023-07-09T02:44:24;22.10;99.90
9033;DHT22;4551;53.164;8.210;2023-07-09T02:46:52;22.10;99.90
9033;DHT22;4551;53.164;8.210;2023-07-09T02:49:21;22.00;99.90
9033;DHT22;4551;53.164;8.210;2023-07-09T02:51:50;21.90;99.90
9033;DHT22;4551;53.164;8.210;2023-07-09T02:54:18;22.00;99.90
9033;DHT22;4551;53.164;8.210;2023-07-09T02:56:46;22.00;99.90
9033;DHT22;4551;53.164;8.210;2023-07-09T02:59:14;22.00;99.90
9033;DHT22;4551;53.164;8.210;2023-07-09T03:01:43;21.90;99.90
9033;DHT22;4551;53.164;8.210;2023-07-09T03:04:12;21.90;99.90
9033;DHT22;4551;53.164;8.210;2023-07-09T03:06:40;21.90;99.90
9033;DHT22;4551;53.164;8.210;2023-07-09T03:09:08;21.80;99.90
9033;DHT22;4551;53.164;8.210;2023-07-09T03:11:36;21.80;99.90
9033;DHT22;4551;53.164;8.210;2023-07-09T03:14:04;21.80;99.90
9033;DHT22;4551;53.164;8.210;2023-07-09T03:16:33;21.80;99.90
9033;DHT22;4551;53.164;8.210;2023-07-09T03:21:45;21.70;99.90
9033;DHT22;4551;53.164;8.210;2023-07-09T03:24:13;21.70;99.90
9033;DHT22;4551;53.164;8.210;2023-07-09T03:26:46;21.70;99.90
9033;DHT22;4551;53.164;8.210;2023-07-09T03:29:14;21.60;99.90
9033;DHT22;4551;53.164;8.210;2023-07-09T03:31:42;21.60;99.90
9033;DHT22;4551;53.164;8.210;2023-07-09T03:34:10;21.60;99.90
9033;DHT22;4551;53.164;8.210;2023-07-09T03:36:38;21.60;99.90
9033;DHT22;4551;53.164;8.210;2023-07-09T03:39:08;21.50;99.90
9033;DHT22;4551;53.164;8.210;2023-07-09T03:41:36;21.50;99.90
9033;DHT22;4551;53.164;8.210;2023-07-09T03:44:04;21.50;99.90
9033;DHT22;4551;53.164;8.210;2023-07-09T03:46:32;21.50;99.90
9033;DHT22;4551;53.164;8.210;2023-07-09T03:49:00;21.50;99.90
9033;DHT22;4551;53.164;8.210;2023-07-09T03:51:28;21.50;99.90
9033;DHT22;4551;53.164;8.210;2023-07-09T03:53:56;21.40;99.90
9033;DHT22;4551;53.164;8.210;2023-07-09T03:56:25;21.40;99.90
9033;DHT22;4551;53.164;8.210;2023-07-09T03:58:53;21.40;99.90
9033;DHT22;4551;53.164;8.210;2023-07-09T04:01:21;21.40;99.90
9033;DHT22;4551;53.164;8.210;2023-07-09T04:03:50;21.40;99.90
9033;DHT22;4551;53.164;8.210;2023-07-09T04:06:18;21.40;99.90
9033;DHT22;4551;53.164;8.210;2023-07-09T04:08:46;21.30;99.90
9033;DHT22;4551;53.164;8.210;2023-07-09T04:11:14;21.40;99.90
9033;DHT22;4551;53.164;8.210;2023-07-09T04:13:43;21.40;99.90
9033;DHT22;4551;53.164;8.210;2023-07-09T04:16:11;21.30;99.90
9033;DHT22;4551;53.164;8.210;2023-07-09T04:18:39;21.30;99.90
9033;DHT22;4551;53.164;8.210;2023-07-09T04:21:08;21.30;99.90
9033;DHT22;4551;53.164;8.210;2023-07-09T04:23:36;21.30;99.90
9033;DHT22;4551;53.164;8.210;2023-07-09T04:26:04;21.30;99.90
9033;DHT22;4551;53.164;8.210;2023-07-09T04:28:37;21.30;99.90
9033;DHT22;4551;53.164;8.210;2023-07-09T04:31:07;21.30;99.90
9033;DHT22;4551;53.164;8.210;2023-07-09T04:33:35;21.30;99.90
9033;DHT22;4551;53.164;8.210;2023-07-09T04:36:03;21.30;99.90
9033;DHT22;4551;53.164;8.210;2023-07-09T04:38:33;21.30;99.90
9033;DHT22;4551;53.164;8.210;2023-07-09T04:41:02;22.00;99.90
9033;DHT22;4551;53.164;8.210;2023-07-09T04:43:32;21.30;99.90
9033;DHT22;4551;53.164;8.210;2023-07-09T04:46:00;21.30;99.90
9033;DHT22;4551;53.164;8.210;2023-07-09T04:48:30;21.30;99.90
9033;DHT22;4551;53.164;8.210;2023-07-09T04:50:58;21.40;99.90
9033;DHT22;4551;53.164;8.210;2023-07-09T04:53:27;21.40;99.90
9033;DHT22;4551;53.164;8.210;2023-07-09T04:55:55;21.40;99.90
9033;DHT22;4551;53.164;8.210;2023-07-09T04:58:23;21.40;99.90
9033;DHT22;4551;53.164;8.210;2023-07-09T05:00:51;21.40;99.90
9033;DHT22;4551;53.164;8.210;2023-07-09T05:03:19;21.40;99.90
9033;DHT22;4551;53.164;8.210;2023-07-09T05:05:49;21.40;99.90
9033;DHT22;4551;53.164;8.210;2023-07-09T05:08:17;21.40;99.90
9033;DHT22;4551;53.164;8.210;2023-07-09T05:10:50;21.40;99.90
9033;DHT22;4551;53.164;8.210;2023-07-09T05:13:18;21.40;99.90
9033;DHT22;4551;53.164;8.210;2023-07-09T05:15:46;21.50;99.90
9033;DHT22;4551;53.164;8.210;2023-07-09T05:18:15;21.50;99.90
9033;DHT22;4551;53.164;8.210;2023-07-09T05:20:43;21.50;99.90
9033;DHT22;4551;53.164;8.210;2023-07-09T05:23:13;21.50;99.90
9033;DHT22;4551;53.164;8.210;2023-07-09T05:25:41;21.60;99.90
9033;DHT22;4551;53.164;8.210;2023-07-09T05:28:09;21.60;99.90
9033;DHT22;4551;53.164;8.210;2023-07-09T05:30:37;21.60;99.90
9033;DHT22;4551;53.164;8.210;2023-07-09T05:33:05;21.70;99.90
9033;DHT22;4551;53.164;8.210;2023-07-09T05:35:33;21.60;99.90
9033;DHT22;4551;53.164;8.210;2023-07-09T05:38:01;21.70;99.90
9033;DHT22;4551;53.164;8.210;2023-07-09T05:40:30;21.70;99.90
9033;DHT22;4551;53.164;8.210;2023-07-09T05:42:59;21.70;99.90
9033;DHT22;4551;53.164;8.210;2023-07-09T05:45:27;21.70;99.90
9033;DHT22;4551;53.164;8.210;2023-07-09T05:47:55;21.80;99.90
9033;DHT22;4551;53.164;8.210;2023-07-09T05:50:23;21.80;99.90
9033;DHT22;4551;53.164;8.210;2023-07-09T05:52:51;21.80;99.90
9033;DHT22;4551;53.164;8.210;2023-07-09T05:55:19;21.90;99.90
9033;DHT22;4551;53.164;8.210;2023-07-09T05:57:48;21.90;99.90
9033;DHT22;4551;53.164;8.210;2023-07-09T06:00:19;21.90;99.90
9033;DHT22;4551;53.164;8.210;2023-07-09T06:02:48;22.00;99.90
9033;DHT22;4551;53.164;8.210;2023-07-09T06:05:16;22.00;99.90
9033;DHT22;4551;53.164;8.210;2023-07-09T06:07:44;22.10;99.90
9033;DHT22;4551;53.164;8.210;2023-07-09T06:10:12;22.10;99.90
9033;DHT22;4551;53.164;8.210;2023-07-09T06:12:40;22.10;99.90
9033;DHT22;4551;53.164;8.210;2023-07-09T06:15:10;22.20;99.90
9033;DHT22;4551;53.164;8.210;2023-07-09T06:17:39;22.20;99.90
9033;DHT22;4551;53.164;8.210;2023-07-09T06:20:09;22.20;99.90
9033;DHT22;4551;53.164;8.210;2023-07-09T06:22:37;22.30;99.90
9033;DHT22;4551;53.164;8.210;2023-07-09T06:25:05;22.30;99.90
9033;DHT22;4551;53.164;8.210;2023-07-09T06:27:33;22.40;99.90
9033;DHT22;4551;53.164;8.210;2023-07-09T06:30:01;22.50;99.90
9033;DHT22;4551;53.164;8.210;2023-07-09T06:32:31;22.50;99.90
9033;DHT22;4551;53.164;8.210;2023-07-09T06:34:59;22.60;99.90
9033;DHT22;4551;53.164;8.210;2023-07-09T06:37:28;22.60;99.90
9033;DHT22;4551;53.164;8.210;2023-07-09T06:39:56;22.70;99.90
9033;DHT22;4551;53.164;8.210;2023-07-09T06:42:24;22.70;99.90
9033;DHT22;4551;53.164;8.210;2023-07-09T06:44:52;22.80;99.90
9033;DHT22;4551;53.164;8.210;2023-07-09T06:47:20;22.80;99.90
9033;DHT22;4551;53.164;8.210;2023-07-09T06:49:50;22.90;99.90
9033;DHT22;4551;53.164;8.210;2023-07-09T06:52:18;23.00;99.90
9033;DHT22;4551;53.164;8.210;2023-07-09T06:54:46;23.00;99.90
9033;DHT22;4551;53.164;8.210;2023-07-09T06:57:14;23.10;99.90
9033;DHT22;4551;53.164;8.210;2023-07-09T06:59:42;23.10;99.90
9033;DHT22;4551;53.164;8.210;2023-07-09T07:02:10;23.20;99.90
9033;DHT22;4551;53.164;8.210;2023-07-09T07:04:38;23.20;99.90
9033;DHT22;4551;53.164;8.210;2023-07-09T07:07:10;23.30;99.90
9033;DHT22;4551;53.164;8.210;2023-07-09T07:09:38;23.30;99.90
9033;DHT22;4551;53.164;8.210;2023-07-09T07:12:06;23.40;99.90
9033;DHT22;4551;53.164;8.210;2023-07-09T07:14:35;23.40;99.90
9033;DHT22;4551;53.164;8.210;2023-07-09T07:17:03;23.50;99.90
9033;DHT22;4551;53.164;8.210;2023-07-09T07:19:31;23.50;99.90
9033;DHT22;4551;53.164;8.210;2023-07-09T07:21:59;23.60;99.90
9033;DHT22;4551;53.164;8.210;2023-07-09T07:24:28;23.60;99.90
9033;DHT22;4551;53.164;8.210;2023-07-09T07:26:56;23.70;99.90
9033;DHT22;4551;53.164;8.210;2023-07-09T07:29:24;23.70;99.90
9033;DHT22;4551;53.164;8.210;2023-07-09T07:31:53;23.80;99.90
9033;DHT22;4551;53.164;8.210;2023-07-09T07:34:24;23.90;99.90
9033;DHT22;4551;53.164;8.210;2023-07-09T07:36:52;23.90;99.90
9033;DHT22;4551;53.164;8.210;2023-07-09T07:39:20;24.10;99.90
9033;DHT22;4551;53.164;8.210;2023-07-09T07:41:50;24.10;99.90
9033;DHT22;4551;53.164;8.210;2023-07-09T07:44:19;24.20;99.90
9033;DHT22;4551;53.164;8.210;2023-07-09T07:46:47;24.30;99.90
9033;DHT22;4551;53.164;8.210;2023-07-09T07:49:15;24.30;99.90
9033;DHT22;4551;53.164;8.210;2023-07-09T07:51:43;24.30;99.90
9033;DHT22;4551;53.164;8.210;2023-07-09T07:54:11;24.40;99.90
9033;DHT22;4551;53.164;8.210;2023-07-09T07:56:39;24.50;99.90
9033;DHT22;4551;53.164;8.210;2023-07-09T07:59:09;24.50;99.90
9033;DHT22;4551;53.164;8.210;2023-07-09T08:01:37;24.50;99.90
9033;DHT22;4551;53.164;8.210;2023-07-09T08:04:05;24.60;99.90
9033;DHT22;4551;53.164;8.210;2023-07-09T08:06:33;24.70;99.90
9033;DHT22;4551;53.164;8.210;2023-07-09T08:09:02;24.70;99.90
9033;DHT22;4551;53.164;8.210;2023-07-09T08:11:30;24.80;99.90
9033;DHT22;4551;53.164;8.210;2023-07-09T08:13:59;24.80;99.90
9033;DHT22;4551;53.164;8.210;2023-07-09T08:16:29;24.90;99.90
9033;DHT22;4551;53.164;8.210;2023-07-09T08:18:57;24.90;99.90
9033;DHT22;4551;53.164;8.210;2023-07-09T08:21:25;25.00;99.90
9033;DHT22;4551;53.164;8.210;2023-07-09T08:23:53;25.10;99.90
9033;DHT22;4551;53.164;8.210;2023-07-09T08:26:21;25.20;99.90
9033;DHT22;4551;53.164;8.210;2023-07-09T08:28:51;25.30;99.90
9033;DHT22;4551;53.164;8.210;2023-07-09T08:31:20;25.30;99.90
9033;DHT22;4551;53.164;8.210;2023-07-09T08:33:50;25.40;99.90
9033;DHT22;4551;53.164;8.210;2023-07-09T08:36:18;25.50;99.90
9033;DHT22;4551;53.164;8.210;2023-07-09T08:38:46;25.50;99.90
9033;DHT22;4551;53.164;8.210;2023-07-09T08:41:17;25.30;99.90
9033;DHT22;4551;53.164;8.210;2023-07-09T08:43:49;25.70;99.90
9033;DHT22;4551;53.164;8.210;2023-07-09T08:46:24;25.70;99.90
9033;DHT22;4551;53.164;8.210;2023-07-09T08:48:56;25.80;99.90
9033;DHT22;4551;53.164;8.210;2023-07-09T08:51:26;25.90;99.90
9033;DHT22;4551;53.164;8.210;2023-07-09T08:53:56;25.90;99.90
9033;DHT22;4551;53.164;8.210;2023-07-09T08:56:25;26.90;99.90
9033;DHT22;4551;53.164;8.210;2023-07-09T08:58:53;26.10;99.90
9033;DHT22;4551;53.164;8.210;2023-07-09T09:01:23;26.20;99.90
9033;DHT22;4551;53.164;8.210;2023-07-09T09:03:52;26.20;99.90
9033;DHT22;4551;53.164;8.210;2023-07-09T09:06:26;26.30;99.90
9033;DHT22;4551;53.164;8.210;2023-07-09T09:08:58;26.40;99.90
9033;DHT22;4551;53.164;8.210;2023-07-09T09:11:33;26.40;99.90
9033;DHT22;4551;53.164;8.210;2023-07-09T09:14:03;26.50;99.90
9033;DHT22;4551;53.164;8.210;2023-07-09T09:16:32;26.60;99.90
9033;DHT22;4551;53.164;8.210;2023-07-09T09:19:05;26.70;99.90
9033;DHT22;4551;53.164;8.210;2023-07-09T09:21:41;26.80;99.90
9033;DHT22;4551;53.164;8.210;2023-07-09T09:24:14;26.90;99.90
9033;DHT22;4551;53.164;8.210;2023-07-09T09:26:43;27.00;99.90
9033;DHT22;4551;53.164;8.210;2023-07-09T09:29:12;27.10;99.90
9033;DHT22;4551;53.164;8.210;2023-07-09T09:31:40;27.10;99.90
9033;DHT22;4551;53.164;8.210;2023-07-09T09:34:16;27.20;99.90
9033;DHT22;4551;53.164;8.210;2023-07-09T09:36:47;27.30;99.90
9033;DHT22;4551;53.164;8.210;2023-07-09T09:39:16;27.30;99.90
9033;DHT22;4551;53.164;8.210;2023-07-09T09:41:44;27.40;99.90
9033;DHT22;4551;53.164;8.210;2023-07-09T09:44:19;27.50;99.90
9033;DHT22;4551;53.164;8.210;2023-07-09T09:46:47;27.50;99.90
9033;DHT22;4551;53.164;8.210;2023-07-09T09:49:17;27.60;99.90
9033;DHT22;4551;53.164;8.210;2023-07-09T09:51:47;27.60;99.90
9033;DHT22;4551;53.164;8.210;2023-07-09T09:54:17;27.70;99.90
9033;DHT22;4551;53.164;8.210;2023-07-09T09:56:47;27.80;99.90
9033;DHT22;4551;53.164;8.210;2023-07-09T09:59:19;27.80;99.90
9033;DHT22;4551;53.164;8.210;2023-07-09T10:01:57;27.90;99.90
9033;DHT22;4551;53.164;8.210;2023-07-09T10:04:26;28.00;99.90
9033;DHT22;4551;53.164;8.210;2023-07-09T10:06:57;28.00;99.90
9033;DHT22;4551;53.164;8.210;2023-07-09T10:09:34;28.30;99.90
9033;DHT22;4551;53.164;8.210;2023-07-09T10:12:10;28.10;99.90
9033;DHT22;4551;53.164;8.210;2023-07-09T10:14:41;28.20;99.90
9033;DHT22;4551;53.164;8.210;2023-07-09T10:17:15;28.30;99.90
9033;DHT22;4551;53.164;8.210;2023-07-09T10:19:53;28.40;99.90
9033;DHT22;4551;53.164;8.210;2023-07-09T10:25:14;28.50;99.90
9033;DHT22;4551;53.164;8.210;2023-07-09T10:27:48;28.60;99.90
9033;DHT22;4551;53.164;8.210;2023-07-09T10:30:28;28.60;99.90
9033;DHT22;4551;53.164;8.210;2023-07-09T10:33:01;28.70;99.90
9033;DHT22;4551;53.164;8.210;2023-07-09T10:35:32;28.80;99.90
9033;DHT22;4551;53.164;8.210;2023-07-09T10:38:07;28.90;99.90
9033;DHT22;4551;53.164;8.210;2023-07-09T10:40:41;29.00;99.90
9033;DHT22;4551;53.164;8.210;2023-07-09T10:43:12;29.10;99.90
9033;DHT22;4551;53.164;8.210;2023-07-09T10:45:41;29.10;99.90
9033;DHT22;4551;53.164;8.210;2023-07-09T10:48:12;29.20;99.90
9033;DHT22;4551;53.164;8.210;2023-07-09T10:50:41;29.20;99.90
9033;DHT22;4551;53.164;8.210;2023-07-09T10:53:12;29.30;99.90
9033;DHT22;4551;53.164;8.210;2023-07-09T10:55:43;29.40;99.90
9033;DHT22;4551;53.164;8.210;2023-07-09T10:58:19;29.50;99.90
9033;DHT22;4551;53.164;8.210;2023-07-09T11:00:50;29.50;99.90
9033;DHT22;4551;53.164;8.210;2023-07-09T11:03:19;29.60;99.90
9033;DHT22;4551;53.164;8.210;2023-07-09T11:05:48;29.70;99.90
9033;DHT22;4551;53.164;8.210;2023-07-09T11:08:17;29.80;99.90
9033;DHT22;4551;53.164;8.210;2023-07-09T11:10:48;29.80;99.90
9033;DHT22;4551;53.164;8.210;2023-07-09T11:13:19;29.90;99.90
9033;DHT22;4551;53.164;8.210;2023-07-09T11:16:01;30.00;99.90
9033;DHT22;4551;53.164;8.210;2023-07-09T11:18:33;30.10;99.90
9033;DHT22;4551;53.164;8.210;2023-07-09T11:21:04;30.10;99.90
9033;DHT22;4551;53.164;8.210;2023-07-09T11:23:43;30.20;99.90
9033;DHT22;4551;53.164;8.210;2023-07-09T11:26:13;30.30;99.90
9033;DHT22;4551;53.164;8.210;2023-07-09T11:28:50;30.40;99.90
9033;DHT22;4551;53.164;8.210;2023-07-09T11:31:20;30.50;99.90
9033;DHT22;4551;53.164;8.210;2023-07-09T11:33:56;30.50;99.90
9033;DHT22;4551;53.164;8.210;2023-07-09T11:36:27;30.60;99.90
9033;DHT22;4551;53.164;8.210;2023-07-09T11:38:55;30.70;99.90
9033;DHT22;4551;53.164;8.210;2023-07-09T11:41:37;30.80;99.90
9033;DHT22;4551;53.164;8.210;2023-07-09T11:44:14;30.90;99.90
9033;DHT22;4551;53.164;8.210;2023-07-09T11:46:54;31.00;99.90
9033;DHT22;4551;53.164;8.210;2023-07-09T11:49:24;31.10;99.90
9033;DHT22;4551;53.164;8.210;2023-07-09T11:51:54;31.20;99.90
9033;DHT22;4551;53.164;8.210;2023-07-09T11:54:23;31.30;99.90
9033;DHT22;4551;53.164;8.210;2023-07-09T11:56:56;31.40;99.90
9033;DHT22;4551;53.164;8.210;2023-07-09T11:59:24;31.50;99.90
9033;DHT22;4551;53.164;8.210;2023-07-09T12:01:52;31.60;99.90
9033;DHT22;4551;53.164;8.210;2023-07-09T12:04:22;31.60;99.90
9033;DHT22;4551;53.164;8.210;2023-07-09T12:06:51;31.70;99.90
9033;DHT22;4551;53.164;8.210;2023-07-09T12:09:20;31.70;99.90
9033;DHT22;4551;53.164;8.210;2023-07-09T12:11:49;31.80;99.90
9033;DHT22;4551;53.164;8.210;2023-07-09T12:14:20;31.90;99.90
9033;DHT22;4551;53.164;8.210;2023-07-09T12:16:49;32.10;99.90
9033;DHT22;4551;53.164;8.210;2023-07-09T12:19:19;32.20;99.90
9033;DHT22;4551;53.164;8.210;2023-07-09T12:21:48;32.30;99.90
9033;DHT22;4551;53.164;8.210;2023-07-09T12:24:18;32.40;99.90
9033;DHT22;4551;53.164;8.210;2023-07-09T12:26:47;32.50;99.90
9033;DHT22;4551;53.164;8.210;2023-07-09T12:29:16;32.70;99.90
9033;DHT22;4551;53.164;8.210;2023-07-09T12:31:45;32.70;99.90
9033;DHT22;4551;53.164;8.210;2023-07-09T12:34:13;32.80;99.90
9033;DHT22;4551;53.164;8.210;2023-07-09T12:36:43;32.80;99.90
9033;DHT22;4551;53.164;8.210;2023-07-09T12:39:12;32.90;99.90
9033;DHT22;4551;53.164;8.210;2023-07-09T12:41:41;33.00;99.90
9033;DHT22;4551;53.164;8.210;2023-07-09T12:44:19;33.20;99.90
9033;DHT22;4551;53.164;8.210;2023-07-09T12:46:49;33.20;99.90
9033;DHT22;4551;53.164;8.210;2023-07-09T12:49:20;33.30;99.90
9033;DHT22;4551;53.164;8.210;2023-07-09T12:51:49;33.50;99.90
9033;DHT22;4551;53.164;8.210;2023-07-09T12:54:18;33.50;99.90
9033;DHT22;4551;53.164;8.210;2023-07-09T12:56:46;33.60;99.90
9033;DHT22;4551;53.164;8.210;2023-07-09T12:59:18;33.70;99.90
9033;DHT22;4551;53.164;8.210;2023-07-09T13:04:36;33.90;99.90
9033;DHT22;4551;53.164;8.210;2023-07-09T13:07:05;34.00;99.90
9033;DHT22;4551;53.164;8.210;2023-07-09T13:09:33;34.10;99.90
9033;DHT22;4551;53.164;8.210;2023-07-09T13:12:03;34.30;99.90
9033;DHT22;4551;53.164;8.210;2023-07-09T13:14:31;34.40;99.90
9033;DHT22;4551;53.164;8.210;2023-07-09T13:17:03;34.40;99.90
9033;DHT22;4551;53.164;8.210;2023-07-09T13:19:31;34.50;99.90
9033;DHT22;4551;53.164;8.210;2023-07-09T13:22:01;34.60;99.90
9033;DHT22;4551;53.164;8.210;2023-07-09T13:24:29;34.60;99.90
9033;DHT22;4551;53.164;8.210;2023-07-09T13:26:59;34.60;99.90
9033;DHT22;4551;53.164;8.210;2023-07-09T13:29:28;34.80;99.90
9033;DHT22;4551;53.164;8.210;2023-07-09T13:31:56;34.90;99.90
9033;DHT22;4551;53.164;8.210;2023-07-09T13:34:25;35.00;99.90
9033;DHT22;4551;53.164;8.210;2023-07-09T13:36:53;35.20;99.90
9033;DHT22;4551;53.164;8.210;2023-07-09T13:39:24;35.40;99.90
9033;DHT22;4551;53.164;8.210;2023-07-09T13:41:55;35.40;99.90
9033;DHT22;4551;53.164;8.210;2023-07-09T13:44:23;35.60;99.90
9033;DHT22;4551;53.164;8.210;2023-07-09T13:46:52;35.80;99.90
9033;DHT22;4551;53.164;8.210;2023-07-09T13:49:22;36.00;99.90
9033;DHT22;4551;53.164;8.210;2023-07-09T13:51:50;36.20;99.90
9033;DHT22;4551;53.164;8.210;2023-07-09T13:54:21;36.30;99.90
9033;DHT22;4551;53.164;8.210;2023-07-09T13:56:51;36.40;99.90
9033;DHT22;4551;53.164;8.210;2023-07-09T13:59:20;36.50;99.90
9033;DHT22;4551;53.164;8.210;2023-07-09T14:01:49;36.60;99.90
9033;DHT22;4551;53.164;8.210;2023-07-09T14:04:17;36.60;99.90
9033;DHT22;4551;53.164;8.210;2023-07-09T14:06:46;36.80;99.90
9033;DHT22;4551;53.164;8.210;2023-07-09T14:09:14;36.70;99.90
9033;DHT22;4551;53.164;8.210;2023-07-09T14:11:43;36.60;99.90
9033;DHT22;4551;53.164;8.210;2023-07-09T14:14:20;36.60;99.90
9033;DHT22;4551;53.164;8.210;2023-07-09T14:16:49;36.50;99.90
9033;DHT22;4551;53.164;8.210;2023-07-09T14:19:19;36.50;99.90
9033;DHT22;4551;53.164;8.210;2023-07-09T14:21:49;36.40;99.90
9033;DHT22;4551;53.164;8.210;2023-07-09T14:24:18;36.40;99.90
9033;DHT22;4551;53.164;8.210;2023-07-09T14:26:47;36.40;99.90
9033;DHT22;4551;53.164;8.210;2023-07-09T14:29:15;36.30;99.90
9033;DHT22;4551;53.164;8.210;2023-07-09T14:31:46;36.30;99.90
9033;DHT22;4551;53.164;8.210;2023-07-09T14:34:19;36.20;99.90
9033;DHT22;4551;53.164;8.210;2023-07-09T14:36:48;36.20;99.90
9033;DHT22;4551;53.164;8.210;2023-07-09T14:39:16;36.10;99.90
9033;DHT22;4551;53.164;8.210;2023-07-09T14:41:44;36.00;99.90
9033;DHT22;4551;53.164;8.210;2023-07-09T14:44:16;35.90;99.90
9033;DHT22;4551;53.164;8.210;2023-07-09T14:46:50;35.90;99.90
9033;DHT22;4551;53.164;8.210;2023-07-09T14:49:18;35.80;99.90
9033;DHT22;4551;53.164;8.210;2023-07-09T14:51:47;35.80;99.90
9033;DHT22;4551;53.164;8.210;2023-07-09T14:54:19;35.70;99.90
9033;DHT22;4551;53.164;8.210;2023-07-09T14:56:50;35.70;99.90
9033;DHT22;4551;53.164;8.210;2023-07-09T14:59:18;35.60;99.90
9033;DHT22;4551;53.164;8.210;2023-07-09T15:01:47;35.50;99.90
9033;DHT22;4551;53.164;8.210;2023-07-09T15:07:07;35.40;99.90
9033;DHT22;4551;53.164;8.210;2023-07-09T15:09:36;35.20;99.90
9033;DHT22;4551;53.164;8.210;2023-07-09T15:12:08;35.10;99.90
9033;DHT22;4551;53.164;8.210;2023-07-09T15:14:40;34.90;99.90
9033;DHT22;4551;53.164;8.210;2023-07-09T15:17:09;34.80;99.90
9033;DHT22;4551;53.164;8.210;2023-07-09T15:19:38;34.70;99.90
9033;DHT22;4551;53.164;8.210;2023-07-09T15:22:09;34.60;99.90
9033;DHT22;4551;53.164;8.210;2023-07-09T15:24:41;34.50;99.90
9033;DHT22;4551;53.164;8.210;2023-07-09T15:27:10;34.40;99.90
9033;DHT22;4551;53.164;8.210;2023-07-09T15:29:38;34.30;99.90
9033;DHT22;4551;53.164;8.210;2023-07-09T15:32:06;34.20;99.90
9033;DHT22;4551;53.164;8.210;2023-07-09T15:34:34;34.20;99.90
9033;DHT22;4551;53.164;8.210;2023-07-09T15:37:04;34.10;99.90
9033;DHT22;4551;53.164;8.210;2023-07-09T15:39:39;34.00;99.90
9033;DHT22;4551;53.164;8.210;2023-07-09T15:42:10;33.90;99.90
9033;DHT22;4551;53.164;8.210;2023-07-09T15:44:38;33.80;99.90
9033;DHT22;4551;53.164;8.210;2023-07-09T15:47:08;33.80;99.90
9033;DHT22;4551;53.164;8.210;2023-07-09T15:49:41;33.70;99.90
9033;DHT22;4551;53.164;8.210;2023-07-09T15:52:09;33.60;99.90
9033;DHT22;4551;53.164;8.210;2023-07-09T15:54:39;33.60;99.90
9033;DHT22;4551;53.164;8.210;2023-07-09T15:57:08;33.50;99.90
9033;DHT22;4551;53.164;8.210;2023-07-09T15:59:37;33.40;99.90
9033;DHT22;4551;53.164;8.210;2023-07-09T16:02:09;33.40;99.90
9033;DHT22;4551;53.164;8.210;2023-07-09T16:04:43;33.30;99.90
9033;DHT22;4551;53.164;8.210;2023-07-09T16:07:13;33.20;99.90
9033;DHT22;4551;53.164;8.210;2023-07-09T16:09:46;33.20;99.90
9033;DHT22;4551;53.164;8.210;2023-07-09T16:12:14;33.20;99.90
9033;DHT22;4551;53.164;8.210;2023-07-09T16:14:42;33.10;99.90
9033;DHT22;4551;53.164;8.210;2023-07-09T16:17:10;33.10;99.90
9033;DHT22;4551;53.164;8.210;2023-07-09T16:19:39;33.10;99.90
9033;DHT22;4551;53.164;8.210;2023-07-09T16:22:06;33.00;99.90
9033;DHT22;4551;53.164;8.210;2023-07-09T16:24:37;33.00;99.90
9033;DHT22;4551;53.164;8.210;2023-07-09T16:27:06;32.90;99.90
9033;DHT22;4551;53.164;8.210;2023-07-09T16:29:37;32.90;99.90